Nanticoke — VCQL — position and weather

sailwx.info

Track history (hours):
 
Tides and Currents Weather Stations Pressure Air Temp Water Temp Dewpoint Dewpoint Depression Visibility Wind Speed Wind Dir Waves Ship Positions

Nanticoke

Last reported at 2016-Sep-24 14:33 UTC. Time now 2016-Sep-26 10:31 UTC.
Position N 46°08' W 072°57'.

Length 223 m; draft 7.4 m.

Type: Cargo ship. MMSI: 316043000.

Date/timePositionNaut miles runAvg speedWind from/ knotsBaromVisibWave heightAir tempDewpointWater temp
2016-Sep-24 14:33N 46°08' W 072°57'2412.2
2016-Sep-24 12:33N 45°49' W 073°19'14 7.1
2016-Sep-24 10:33N 45°37' W 073°30'0 0.0
2016-Sep-24 09:33N 45°37' W 073°30'0 0.0
2016-Sep-24 03:33N 45°37' W 073°30'7 6.5
2016-Sep-24 02:34N 45°43' W 073°26'9 8.8
2016-Sep-24 01:33N 45°50' W 073°18'9 8.5
2016-Sep-24 00:33N 45°57' W 073°12'  
2016-Sep-19 03:32N 47°33' W 052°38'2 1.9
2016-Sep-19 02:15N 47°34' W 052°42'0 0.0
2016-Sep-19 00:30N 47°34' W 052°42'0 0.0
2016-Sep-18 19:33N 47°34' W 052°42'6 1.4
2016-Sep-18 15:32N 47°32' W 052°34'  
Track history (hours):
 
Tides and Currents Weather Stations Pressure Air Temp Water Temp Dewpoint Dewpoint Depression Visibility Wind Speed Wind Dir Waves Ship Positions

Nanticoke

Last reported at 2016-Sep-24 14:33 UTC. Time now 2016-Sep-26 10:31 UTC.
Position N 46°08' W 072°57'.

Length 223 m; draft 7.4 m.

Type: Cargo ship. MMSI: 316043000.

Date/timePositionNaut miles runAvg speedWind from/ knotsBaromVisibWave heightAir tempDewpointWater temp
2016-Sep-24 14:33N 46°08' W 072°57'2412.2
2016-Sep-24 12:33N 45°49' W 073°19'14 7.1
2016-Sep-24 10:33N 45°37' W 073°30'0 0.0
2016-Sep-24 09:33N 45°37' W 073°30'0 0.0
2016-Sep-24 03:33N 45°37' W 073°30'7 6.5
2016-Sep-24 02:34N 45°43' W 073°26'9 8.8
2016-Sep-24 01:33N 45°50' W 073°18'9 8.5
2016-Sep-24 00:33N 45°57' W 073°12'  
2016-Sep-19 03:32N 47°33' W 052°38'2 1.9
2016-Sep-19 02:15N 47°34' W 052°42'0 0.0
2016-Sep-19 00:30N 47°34' W 052°42'0 0.0
2016-Sep-18 19:33N 47°34' W 052°42'6 1.4
2016-Sep-18 15:32N 47°32' W 052°34'  

Dump ship's entire track history